createdAt,value
2018-09-21T00:00:14.090Z,22.40
2018-09-21T00:02:41.560Z,22.40
2018-09-21T00:05:09.070Z,22.30
2018-09-21T00:07:36.545Z,22.30
2018-09-21T00:10:04.029Z,22.20
2018-09-21T00:12:31.486Z,22.00
2018-09-21T00:14:58.963Z,21.90
2018-09-21T00:17:26.406Z,21.80
2018-09-21T00:19:53.862Z,21.70
2018-09-21T00:22:21.313Z,21.70
2018-09-21T00:24:48.817Z,21.60
2018-09-21T00:27:16.281Z,21.60
2018-09-21T00:29:43.726Z,21.60
2018-09-21T00:32:11.168Z,21.70
2018-09-21T00:34:38.613Z,21.70
2018-09-21T00:37:06.069Z,21.80
2018-09-21T00:39:33.515Z,21.80
2018-09-21T00:42:00.960Z,21.90
2018-09-21T00:44:28.374Z,21.90
2018-09-21T00:46:55.855Z,21.90
2018-09-21T00:49:23.339Z,22.00
2018-09-21T00:51:50.974Z,21.90
2018-09-21T00:54:18.399Z,22.00
2018-09-21T00:56:45.863Z,22.00
2018-09-21T00:59:13.378Z,22.00
2018-09-21T01:01:40.878Z,22.10
2018-09-21T01:04:08.339Z,22.00
2018-09-21T01:06:35.867Z,22.00
2018-09-21T01:09:05.023Z,22.10
2018-09-21T01:14:08.337Z,22.00
2018-09-21T01:16:35.881Z,22.00
2018-09-21T01:19:03.942Z,22.10
2018-09-21T01:21:31.463Z,22.10
2018-09-21T01:23:59.050Z,22.20
2018-09-21T01:26:26.524Z,22.20
2018-09-21T01:28:54.082Z,22.20
2018-09-21T01:31:21.745Z,22.10
2018-09-21T01:33:49.206Z,22.10
2018-09-21T01:36:16.757Z,22.00
2018-09-21T01:38:44.226Z,22.00
2018-09-21T01:41:11.686Z,21.90
2018-09-21T01:43:39.131Z,21.70
2018-09-21T01:46:06.566Z,21.50
2018-09-21T01:48:34.001Z,21.50
2018-09-21T01:51:01.670Z,21.40
2018-09-21T01:53:29.119Z,21.40
2018-09-21T01:55:56.538Z,21.40
2018-09-21T01:58:23.970Z,21.40
2018-09-21T02:00:51.409Z,21.40
2018-09-21T02:03:18.870Z,21.40
2018-09-21T02:05:46.305Z,21.40
2018-09-21T02:08:13.836Z,21.40
2018-09-21T02:10:41.501Z,21.30
2018-09-21T02:13:09.010Z,21.30
2018-09-21T02:15:36.453Z,21.20
2018-09-21T02:18:03.866Z,21.20
2018-09-21T02:20:31.302Z,21.10
2018-09-21T02:22:58.724Z,21.10
2018-09-21T02:25:26.369Z,21.10
2018-09-21T02:27:53.913Z,21.10
2018-09-21T02:30:21.702Z,21.00
2018-09-21T02:32:49.140Z,21.10
2018-09-21T02:35:16.683Z,21.10
2018-09-21T02:37:44.143Z,21.20
2018-09-21T02:40:11.665Z,21.30
2018-09-21T02:42:39.129Z,21.30
2018-09-21T02:45:06.966Z,21.30
2018-09-21T02:47:34.412Z,21.30
2018-09-21T02:50:02.170Z,21.30
2018-09-21T02:52:29.657Z,21.40
2018-09-21T02:54:57.103Z,21.50
2018-09-21T02:57:24.661Z,21.50
2018-09-21T02:59:52.078Z,21.50
2018-09-21T03:02:19.563Z,21.50
2018-09-21T03:04:52.002Z,21.50
2018-09-21T03:07:19.479Z,21.50
2018-09-21T03:09:46.906Z,21.50
2018-09-21T03:12:14.443Z,21.50
2018-09-21T03:14:41.866Z,21.50
2018-09-21T03:17:09.317Z,21.40
2018-09-21T03:19:36.762Z,21.30
2018-09-21T03:22:04.285Z,21.30
2018-09-21T03:24:31.842Z,21.30
2018-09-21T03:26:59.286Z,21.20
2018-09-21T03:29:26.838Z,21.20
2018-09-21T03:31:54.296Z,21.20
2018-09-21T03:34:21.866Z,21.00
2018-09-21T03:36:49.291Z,21.00
2018-09-21T03:39:17.025Z,20.90
2018-09-21T03:41:44.453Z,20.80
2018-09-21T03:44:11.893Z,20.80
2018-09-21T03:46:39.465Z,20.80
2018-09-21T03:49:06.995Z,20.80
2018-09-21T03:51:34.504Z,20.60
2018-09-21T03:54:01.964Z,20.50
2018-09-21T03:56:29.511Z,20.50
2018-09-21T03:58:56.950Z,20.50
2018-09-21T04:01:24.411Z,20.50
2018-09-21T04:03:51.931Z,20.50
2018-09-21T04:06:19.422Z,20.50
2018-09-21T04:08:46.891Z,20.60
2018-09-21T04:11:14.323Z,20.60
2018-09-21T04:13:41.905Z,20.60
2018-09-21T04:16:09.465Z,20.60
2018-09-21T04:18:36.896Z,20.60
2018-09-21T04:21:04.597Z,20.50
2018-09-21T04:23:32.135Z,20.50
2018-09-21T04:25:59.587Z,20.60
2018-09-21T04:28:27.118Z,20.60
2018-09-21T04:30:55.562Z,20.60
2018-09-21T04:33:24.086Z,20.50
2018-09-21T04:35:51.649Z,20.50
2018-09-21T04:38:19.091Z,20.50
2018-09-21T04:40:46.550Z,20.50
2018-09-21T04:43:13.964Z,20.50
2018-09-21T04:45:41.413Z,20.50
2018-09-21T04:48:08.856Z,20.50
2018-09-21T04:50:36.287Z,20.50
2018-09-21T04:53:04.348Z,20.50
2018-09-21T04:55:31.842Z,20.50
2018-09-21T04:57:59.514Z,20.50
2018-09-21T05:00:27.067Z,20.50
2018-09-21T05:02:54.626Z,20.60
2018-09-21T05:05:22.114Z,20.70
2018-09-21T05:07:49.559Z,20.90
2018-09-21T05:10:17.025Z,21.00
2018-09-21T05:12:44.533Z,21.10
2018-09-21T05:15:11.942Z,21.10
2018-09-21T05:17:39.482Z,21.20
2018-09-21T05:20:06.923Z,21.20
2018-09-21T05:22:34.373Z,21.30
2018-09-21T05:25:01.843Z,21.30
2018-09-21T05:27:29.409Z,21.30
2018-09-21T05:29:56.977Z,21.30
2018-09-21T05:32:24.403Z,21.40
2018-09-21T05:34:51.967Z,21.40
2018-09-21T05:37:19.478Z,21.40
2018-09-21T05:39:46.915Z,21.50
2018-09-21T05:42:14.363Z,21.50
2018-09-21T05:44:41.921Z,21.50
2018-09-21T05:47:09.392Z,21.60
2018-09-21T05:49:36.885Z,21.60
2018-09-21T05:52:04.379Z,21.60
2018-09-21T05:54:31.818Z,21.70
2018-09-21T05:56:59.430Z,21.80
2018-09-21T05:59:26.846Z,21.80
2018-09-21T06:01:54.308Z,21.80
2018-09-21T06:04:21.855Z,21.90
2018-09-21T06:06:49.322Z,21.90
2018-09-21T06:09:16.766Z,21.90
2018-09-21T06:11:44.169Z,21.90
2018-09-21T06:14:12.069Z,22.00
2018-09-21T06:16:39.988Z,22.10
2018-09-21T06:19:07.803Z,22.10
2018-09-21T06:21:35.433Z,22.20
2018-09-21T06:24:02.847Z,22.20
2018-09-21T06:26:30.367Z,22.30
2018-09-21T06:28:57.798Z,22.40
2018-09-21T06:31:25.343Z,22.30
2018-09-21T06:33:52.823Z,22.30
2018-09-21T06:36:20.978Z,22.30
2018-09-21T06:38:48.438Z,22.40
2018-09-21T06:41:16.009Z,22.60
2018-09-21T06:43:43.444Z,22.80
2018-09-21T06:46:11.062Z,23.10
2018-09-21T06:48:38.522Z,23.40
2018-09-21T06:51:06.258Z,23.60
2018-09-21T06:53:33.754Z,23.70
2018-09-21T06:56:01.278Z,23.90
2018-09-21T06:58:28.721Z,24.10
2018-09-21T07:00:56.218Z,24.10
2018-09-21T07:03:23.635Z,24.30
2018-09-21T07:05:51.152Z,24.40
2018-09-21T07:08:18.597Z,24.40
2018-09-21T07:10:46.032Z,24.60
2018-09-21T07:13:13.481Z,24.60
2018-09-21T07:15:40.898Z,24.70
2018-09-21T07:18:08.342Z,24.80
2018-09-21T07:20:35.788Z,25.10
2018-09-21T07:23:03.285Z,25.30
2018-09-21T07:25:30.818Z,25.60
2018-09-21T07:27:58.233Z,25.50
2018-09-21T07:30:25.674Z,25.50
2018-09-21T07:32:53.239Z,25.80
2018-09-21T07:35:20.670Z,25.70
2018-09-21T07:37:48.155Z,25.70
2018-09-21T07:40:15.761Z,26.00
2018-09-21T07:42:43.246Z,26.00
2018-09-21T07:45:10.645Z,26.10
2018-09-21T07:47:38.109Z,25.70
2018-09-21T07:50:05.622Z,25.80
2018-09-21T07:52:33.093Z,25.40
2018-09-21T07:55:00.786Z,25.30
2018-09-21T07:57:28.240Z,25.40
2018-09-21T07:59:55.674Z,25.40
2018-09-21T08:02:23.117Z,25.50
2018-09-21T08:04:50.564Z,25.70
2018-09-21T08:07:18.058Z,25.80
2018-09-21T08:09:45.459Z,26.00
2018-09-21T08:12:12.924Z,25.80
2018-09-21T08:14:40.446Z,25.60
2018-09-21T08:17:07.913Z,25.60
2018-09-21T08:19:35.397Z,25.60
2018-09-21T08:22:02.922Z,25.70
2018-09-21T08:24:30.426Z,25.80
2018-09-21T08:26:57.990Z,25.80
2018-09-21T08:29:25.515Z,26.10
2018-09-21T08:31:52.946Z,26.20
2018-09-21T08:34:20.409Z,26.30
2018-09-21T08:36:47.829Z,26.40
2018-09-21T08:39:15.382Z,26.40
2018-09-21T08:41:42.866Z,26.30
2018-09-21T08:44:10.674Z,26.40
2018-09-21T08:46:38.526Z,26.40
2018-09-21T08:49:06.042Z,26.80
2018-09-21T08:51:33.528Z,26.80
2018-09-21T08:54:01.030Z,27.60
2018-09-21T08:56:28.687Z,28.60
2018-09-21T08:58:56.151Z,29.40
2018-09-21T09:01:23.633Z,30.60
2018-09-21T09:03:51.055Z,30.10
2018-09-21T09:06:18.521Z,29.80
2018-09-21T09:08:46.017Z,29.60
2018-09-21T09:11:13.566Z,29.50
2018-09-21T09:13:41.048Z,29.60
2018-09-21T09:16:08.723Z,28.50
2018-09-21T09:18:36.209Z,27.80
2018-09-21T09:21:03.694Z,27.50
2018-09-21T09:23:31.109Z,27.40
2018-09-21T09:25:58.598Z,27.70
2018-09-21T09:28:26.155Z,27.70
2018-09-21T09:30:53.761Z,27.40
2018-09-21T09:33:21.246Z,27.40
2018-09-21T09:35:48.682Z,27.30
2018-09-21T09:38:16.087Z,27.50
2018-09-21T09:40:43.725Z,27.30
2018-09-21T09:43:11.266Z,27.40
2018-09-21T09:45:38.763Z,27.40
2018-09-21T09:48:06.302Z,27.50
2018-09-21T09:50:33.794Z,27.40
2018-09-21T09:53:01.212Z,27.50
2018-09-21T09:55:28.650Z,27.80
2018-09-21T09:57:56.162Z,28.30
2018-09-21T10:00:29.326Z,28.20
2018-09-21T10:02:56.903Z,27.90
2018-09-21T10:05:24.354Z,27.70
2018-09-21T10:07:51.827Z,27.50
2018-09-21T10:10:19.337Z,27.50
2018-09-21T10:12:46.819Z,27.50
2018-09-21T10:15:14.406Z,27.50
2018-09-21T10:17:41.977Z,27.30
2018-09-21T10:20:09.580Z,27.30
2018-09-21T10:22:37.082Z,27.30
2018-09-21T10:25:04.593Z,27.30
2018-09-21T10:27:32.285Z,27.30
2018-09-21T10:29:59.588Z,27.30
2018-09-21T10:32:27.092Z,27.30
2018-09-21T10:34:54.540Z,27.60
2018-09-21T10:37:22.002Z,27.70
2018-09-21T10:39:49.600Z,27.80
2018-09-21T10:42:17.089Z,27.70
2018-09-21T10:44:44.522Z,27.50
2018-09-21T10:47:12.034Z,27.80
2018-09-21T10:49:39.453Z,28.20
2018-09-21T10:52:06.976Z,28.50
2018-09-21T10:54:34.495Z,28.80
2018-09-21T10:57:02.014Z,29.00
2018-09-21T10:59:29.546Z,28.80
2018-09-21T11:01:56.962Z,28.50
2018-09-21T11:04:24.357Z,28.70
2018-09-21T11:06:51.927Z,29.00
2018-09-21T11:09:19.433Z,28.50
2018-09-21T11:11:46.957Z,28.30
2018-09-21T11:14:14.425Z,27.90
2018-09-21T11:16:41.897Z,27.70
2018-09-21T11:19:09.467Z,27.50
2018-09-21T11:21:36.987Z,27.40
2018-09-21T11:24:04.398Z,27.40
2018-09-21T11:26:31.867Z,27.40
2018-09-21T11:28:59.574Z,27.30
2018-09-21T11:31:27.121Z,27.40
2018-09-21T11:33:54.636Z,27.40
2018-09-21T11:36:22.108Z,27.40
2018-09-21T11:38:49.555Z,27.30
2018-09-21T11:41:17.108Z,27.30
2018-09-21T11:43:44.618Z,27.10
2018-09-21T11:46:12.200Z,27.00
2018-09-21T11:48:39.623Z,27.00
2018-09-21T11:51:07.066Z,27.00
2018-09-21T11:53:34.644Z,26.90
2018-09-21T11:56:02.130Z,26.80
2018-09-21T11:58:29.586Z,26.70
2018-09-21T12:00:57.212Z,26.80
2018-09-21T12:03:24.678Z,26.90
2018-09-21T12:05:52.265Z,26.80
2018-09-21T12:08:19.804Z,27.00
2018-09-21T12:10:47.343Z,26.90
2018-09-21T12:13:14.865Z,26.90
2018-09-21T12:15:42.294Z,26.90
2018-09-21T12:18:09.810Z,26.90
2018-09-21T12:20:37.294Z,26.80
2018-09-21T12:23:05.031Z,26.80
2018-09-21T12:25:32.497Z,26.80
2018-09-21T12:27:59.935Z,26.90
2018-09-21T12:30:27.585Z,26.90
2018-09-21T12:32:55.020Z,26.80
2018-09-21T12:35:22.507Z,26.80
2018-09-21T12:37:49.961Z,26.90
2018-09-21T12:40:17.518Z,27.00
2018-09-21T12:42:45.070Z,26.90
2018-09-21T12:45:12.539Z,27.10
2018-09-21T12:47:40.086Z,27.00
2018-09-21T12:50:07.620Z,27.10
2018-09-21T12:52:35.082Z,27.10
2018-09-21T12:55:02.640Z,26.80
2018-09-21T12:57:30.131Z,26.80
2018-09-21T12:59:57.569Z,26.70
2018-09-21T13:02:25.031Z,26.60
2018-09-21T13:04:52.798Z,26.60
2018-09-21T13:07:20.326Z,26.50
2018-09-21T13:09:47.803Z,26.50
2018-09-21T13:12:15.278Z,26.50
2018-09-21T13:14:42.743Z,26.40
2018-09-21T13:17:10.219Z,26.30
2018-09-21T13:19:37.638Z,26.40
2018-09-21T13:22:05.097Z,26.40
2018-09-21T13:24:32.711Z,26.50
2018-09-21T13:27:00.144Z,26.40
2018-09-21T13:29:27.634Z,26.40
2018-09-21T13:31:55.054Z,26.40
2018-09-21T13:34:22.491Z,26.40
2018-09-21T13:36:49.940Z,26.40
2018-09-21T13:39:17.498Z,26.30
2018-09-21T13:41:45.580Z,26.40
2018-09-21T13:44:13.062Z,26.40
2018-09-21T13:46:40.481Z,26.40
2018-09-21T13:49:08.046Z,26.40
2018-09-21T13:51:35.611Z,26.40
2018-09-21T13:54:03.041Z,26.40
2018-09-21T13:56:30.629Z,26.30
2018-09-21T13:58:58.082Z,26.20
2018-09-21T14:01:26.115Z,26.30
2018-09-21T14:03:53.658Z,26.40
2018-09-21T14:06:21.141Z,26.50
2018-09-21T14:08:48.549Z,26.40
2018-09-21T14:11:16.033Z,26.40
2018-09-21T14:13:43.543Z,26.40
2018-09-21T14:16:11.106Z,26.20
2018-09-21T14:18:38.682Z,26.10
2018-09-21T14:21:06.153Z,26.20
2018-09-21T14:23:33.598Z,26.10
2018-09-21T14:26:01.123Z,26.10
2018-09-21T14:28:28.595Z,26.10
2018-09-21T14:30:56.293Z,26.00
2018-09-21T14:33:23.804Z,26.10
2018-09-21T14:35:51.261Z,26.10
2018-09-21T14:38:18.764Z,26.20
2018-09-21T14:40:46.286Z,26.00
2018-09-21T14:43:13.934Z,25.90
2018-09-21T14:45:41.441Z,25.90
2018-09-21T14:48:08.890Z,26.00
2018-09-21T14:50:36.327Z,26.00
2018-09-21T14:53:03.810Z,26.00
2018-09-21T14:55:31.286Z,26.00
2018-09-21T14:57:58.748Z,26.10
2018-09-21T15:00:26.190Z,25.80
2018-09-21T15:02:53.683Z,25.70
2018-09-21T15:05:21.141Z,25.70
2018-09-21T15:07:48.906Z,25.70
2018-09-21T15:10:16.359Z,25.70
2018-09-21T15:12:43.826Z,25.70
2018-09-21T15:15:11.286Z,25.60
2018-09-21T15:17:38.780Z,25.60
2018-09-21T15:20:06.322Z,25.50
2018-09-21T15:22:33.787Z,25.50
2018-09-21T15:25:01.275Z,25.50
2018-09-21T15:27:28.844Z,25.60
2018-09-21T15:29:56.345Z,25.40
2018-09-21T15:32:23.799Z,25.40
2018-09-21T15:34:51.290Z,25.40
2018-09-21T15:37:18.779Z,25.50
2018-09-21T15:39:46.257Z,25.50
2018-09-21T15:42:13.735Z,25.40
2018-09-21T15:44:41.200Z,25.40
2018-09-21T15:47:08.683Z,25.40
2018-09-21T15:49:36.232Z,25.20
2018-09-21T15:52:04.470Z,25.10
2018-09-21T15:54:31.978Z,25.00
2018-09-21T15:56:59.533Z,25.00
2018-09-21T15:59:27.179Z,25.00
2018-09-21T16:01:54.747Z,24.90
2018-09-21T16:04:22.254Z,24.80
2018-09-21T16:06:49.765Z,24.90
2018-09-21T16:09:17.328Z,24.60
2018-09-21T16:11:44.837Z,24.60
2018-09-21T16:14:12.367Z,24.50
2018-09-21T16:16:39.905Z,24.40
2018-09-21T16:19:07.409Z,24.30
2018-09-21T16:21:34.873Z,23.60
2018-09-21T16:24:02.339Z,23.90
2018-09-21T16:26:30.042Z,24.00
2018-09-21T16:28:57.499Z,24.10
2018-09-21T16:31:24.947Z,24.30
2018-09-21T16:33:52.439Z,24.30
2018-09-21T16:36:20.063Z,24.40
2018-09-21T16:38:47.527Z,24.50
2018-09-21T16:41:14.969Z,24.20
2018-09-21T16:43:42.489Z,24.00
2018-09-21T16:46:09.949Z,23.80
2018-09-21T16:48:37.432Z,22.70
2018-09-21T16:51:04.986Z,21.80
2018-09-21T16:53:32.419Z,20.90
2018-09-21T16:55:59.994Z,20.30
2018-09-21T16:58:27.499Z,19.70
2018-09-21T17:00:55.118Z,19.30
2018-09-21T17:03:22.668Z,18.70
2018-09-21T17:05:50.249Z,18.80
2018-09-21T17:08:17.802Z,18.70
2018-09-21T17:10:45.426Z,18.70
2018-09-21T17:13:13.008Z,18.80
2018-09-21T17:15:40.593Z,18.80
2018-09-21T17:18:08.145Z,18.70
2018-09-21T17:20:35.644Z,19.40
2018-09-21T17:23:03.198Z,20.10
2018-09-21T17:25:30.845Z,19.60
2018-09-21T17:27:58.393Z,19.10
2018-09-21T17:30:25.878Z,19.40
2018-09-21T17:32:53.402Z,19.30
2018-09-21T17:35:20.913Z,18.90
2018-09-21T17:37:48.376Z,19.30
2018-09-21T17:40:15.917Z,19.10
2018-09-21T17:42:43.462Z,19.50
2018-09-21T17:45:10.930Z,20.40
2018-09-21T17:47:38.384Z,20.60
2018-09-21T17:50:05.943Z,21.00
2018-09-21T17:52:33.441Z,19.20
2018-09-21T17:55:00.877Z,18.90
2018-09-21T17:57:28.318Z,19.20
2018-09-21T17:59:55.804Z,19.80
2018-09-21T18:02:23.288Z,21.20
2018-09-21T18:04:50.784Z,21.60
2018-09-21T18:07:19.010Z,20.50
2018-09-21T18:09:47.159Z,19.20
2018-09-21T18:12:14.638Z,18.70
2018-09-21T18:14:42.258Z,19.70
2018-09-21T18:17:09.773Z,20.20
2018-09-21T18:19:37.365Z,19.00
2018-09-21T18:22:04.863Z,19.40
2018-09-21T18:24:32.468Z,19.20
2018-09-21T18:27:00.026Z,18.90
2018-09-21T18:29:27.484Z,18.20
2018-09-21T18:31:54.945Z,18.30
2018-09-21T18:34:22.517Z,18.40
2018-09-21T18:36:50.060Z,18.30
2018-09-21T18:39:17.550Z,18.10
2018-09-21T18:41:45.010Z,18.10
2018-09-21T18:44:12.539Z,17.70
2018-09-21T18:46:39.982Z,17.20
2018-09-21T18:49:07.669Z,17.20
2018-09-21T18:51:35.205Z,17.30
2018-09-21T18:54:02.795Z,17.30
2018-09-21T18:56:30.398Z,17.10
2018-09-21T18:58:58.456Z,17.50
2018-09-21T19:01:26.131Z,17.60
2018-09-21T19:03:53.679Z,17.80
2018-09-21T19:06:21.219Z,17.40
2018-09-21T19:08:48.782Z,17.20
2018-09-21T19:11:16.408Z,17.40
2018-09-21T19:13:44.185Z,17.30
2018-09-21T19:16:11.978Z,17.00
2018-09-21T19:18:39.787Z,16.90
2018-09-21T19:21:07.403Z,16.80
2018-09-21T19:23:35.203Z,16.90
2018-09-21T19:26:02.972Z,17.00
2018-09-21T19:28:30.805Z,17.20
2018-09-21T19:30:58.553Z,17.20
2018-09-21T19:33:26.467Z,16.90
2018-09-21T19:35:54.233Z,16.80
2018-09-21T19:38:22.268Z,16.70
2018-09-21T19:40:49.912Z,16.80
2018-09-21T19:43:17.497Z,17.00
2018-09-21T19:45:45.121Z,16.80
2018-09-21T19:48:12.617Z,16.70
2018-09-21T19:50:40.146Z,17.10
2018-09-21T19:53:07.782Z,17.20
2018-09-21T19:55:36.041Z,17.20
2018-09-21T19:58:03.557Z,16.80
2018-09-21T20:00:31.090Z,16.70
2018-09-21T20:02:58.586Z,17.20
2018-09-21T20:05:26.107Z,17.20
2018-09-21T20:07:53.831Z,17.40
2018-09-21T20:10:21.286Z,17.10
2018-09-21T20:12:48.778Z,16.90
2018-09-21T20:15:16.357Z,16.80
2018-09-21T20:17:43.806Z,16.60
2018-09-21T20:20:11.291Z,17.10
2018-09-21T20:22:38.749Z,17.00
2018-09-21T20:25:06.409Z,17.30
2018-09-21T20:27:33.826Z,17.40
2018-09-21T20:30:06.915Z,17.20
2018-09-21T20:32:40.087Z,17.10
2018-09-21T20:35:07.414Z,17.00
2018-09-21T20:37:34.913Z,16.70
2018-09-21T20:40:02.671Z,16.90
2018-09-21T20:42:30.146Z,16.80
2018-09-21T20:44:57.613Z,16.80
2018-09-21T20:47:25.079Z,16.80
2018-09-21T20:49:52.531Z,16.90
2018-09-21T20:52:20.034Z,16.80
2018-09-21T20:54:47.478Z,16.80
2018-09-21T20:57:14.913Z,16.60
2018-09-21T20:59:42.401Z,16.60
2018-09-21T21:02:09.931Z,16.90
2018-09-21T21:04:37.471Z,16.70
2018-09-21T21:07:04.976Z,16.70
2018-09-21T21:09:32.406Z,16.70
2018-09-21T21:11:59.890Z,16.50
2018-09-21T21:14:27.366Z,16.50
2018-09-21T21:16:54.832Z,16.50
2018-09-21T21:19:22.297Z,16.50
2018-09-21T21:21:49.757Z,16.50
2018-09-21T21:24:17.401Z,16.50
2018-09-21T21:26:44.884Z,16.40
2018-09-21T21:29:12.411Z,16.30
2018-09-21T21:31:40.075Z,16.30
2018-09-21T21:34:07.667Z,16.40
2018-09-21T21:36:35.198Z,16.50
2018-09-21T21:39:02.797Z,16.40
2018-09-21T21:41:30.366Z,16.80
2018-09-21T21:43:57.912Z,16.60
2018-09-21T21:46:25.470Z,16.50
2018-09-21T21:48:53.074Z,16.30
2018-09-21T21:51:20.673Z,16.40
2018-09-21T21:53:48.278Z,16.40
2018-09-21T21:56:15.808Z,16.30
2018-09-21T21:58:43.345Z,16.10
2018-09-21T22:01:16.519Z,16.10
2018-09-21T22:03:44.022Z,16.10
2018-09-21T22:06:11.511Z,16.20
2018-09-21T22:08:39.006Z,16.40
2018-09-21T22:11:12.053Z,16.30
2018-09-21T22:13:45.281Z,16.20
2018-09-21T22:16:12.770Z,16.20
2018-09-21T22:18:40.287Z,16.60
2018-09-21T22:21:07.983Z,16.80
2018-09-21T22:23:35.497Z,16.60
2018-09-21T22:26:02.974Z,16.70
2018-09-21T22:28:30.574Z,16.90
2018-09-21T22:30:57.986Z,17.40
2018-09-21T22:33:25.467Z,17.20
2018-09-21T22:35:52.989Z,17.00
2018-09-21T22:38:20.520Z,17.20
2018-09-21T22:40:47.910Z,17.00
2018-09-21T22:43:15.430Z,17.20
2018-09-21T22:45:42.958Z,17.50
2018-09-21T22:48:10.422Z,17.10
2018-09-21T22:50:37.852Z,17.30
2018-09-21T22:53:05.769Z,17.50
2018-09-21T22:55:33.234Z,17.50
2018-09-21T22:58:00.645Z,17.40
2018-09-21T23:00:28.145Z,17.10
2018-09-21T23:02:55.925Z,16.90
2018-09-21T23:05:23.443Z,17.40
2018-09-21T23:07:50.891Z,17.50
2018-09-21T23:10:18.367Z,17.40
2018-09-21T23:12:45.802Z,17.20
2018-09-21T23:15:13.234Z,17.10
2018-09-21T23:17:40.678Z,17.00
2018-09-21T23:20:08.329Z,16.80
2018-09-21T23:22:35.756Z,16.80
2018-09-21T23:25:03.383Z,16.90
2018-09-21T23:27:30.849Z,16.80
2018-09-21T23:29:58.333Z,16.50
2018-09-21T23:32:25.939Z,16.30
2018-09-21T23:34:53.370Z,16.10
2018-09-21T23:37:20.940Z,16.00
2018-09-21T23:39:48.427Z,15.80
2018-09-21T23:42:15.955Z,15.70
2018-09-21T23:44:43.426Z,15.80
2018-09-21T23:47:10.870Z,15.70
2018-09-21T23:49:38.493Z,15.70
2018-09-21T23:52:06.033Z,15.80
2018-09-21T23:54:33.573Z,15.70
2018-09-21T23:57:01.062Z,15.60
2018-09-21T23:59:28.500Z,15.40
